createdAt,value
2024-03-14T00:11:10.330Z,75.10
2024-03-14T00:26:12.582Z,75.27
2024-03-14T00:41:17.568Z,75.39
2024-03-14T00:56:19.515Z,74.67
2024-03-14T01:11:21.455Z,74.42
2024-03-14T01:26:23.521Z,74.38
2024-03-14T01:41:25.612Z,74.33
2024-03-14T01:56:28.502Z,75.24
2024-03-14T02:11:32.567Z,76.12
2024-03-14T02:26:41.040Z,76.20
2024-03-14T02:41:42.996Z,76.59
2024-03-14T02:56:48.955Z,77.01
2024-03-14T03:11:51.547Z,77.99
2024-03-14T03:26:53.663Z,78.53
2024-03-14T03:41:55.753Z,78.84
2024-03-14T03:56:58.364Z,79.41
2024-03-14T04:12:01.391Z,79.90
2024-03-14T04:27:06.754Z,80.54
2024-03-14T04:42:09.619Z,81.23
2024-03-14T04:57:11.619Z,82.02
2024-03-14T05:12:15.456Z,82.37
2024-03-14T05:27:17.419Z,83.51
2024-03-14T05:42:22.351Z,82.69
2024-03-14T05:57:24.430Z,82.44
2024-03-14T06:12:26.472Z,77.40
2024-03-14T06:27:28.595Z,72.38
2024-03-14T06:42:30.700Z,66.39
2024-03-14T06:57:33.549Z,61.60
2024-03-14T07:12:36.988Z,58.63
2024-03-14T07:27:39.572Z,55.91
2024-03-14T07:42:42.012Z,51.94
2024-03-14T07:57:43.914Z,50.45
2024-03-14T08:12:45.830Z,48.85
2024-03-14T08:27:48.558Z,48.50
2024-03-14T08:42:53.122Z,49.83
2024-03-14T08:57:54.954Z,47.86
2024-03-14T09:12:57.081Z,48.34
2024-03-14T09:28:01.070Z,41.29
2024-03-14T09:43:06.319Z,42.13
2024-03-14T09:58:10.192Z,42.11
2024-03-14T10:13:12.148Z,40.86
2024-03-14T10:28:19.236Z,40.44
2024-03-14T10:43:21.532Z,45.60
2024-03-14T10:58:27.016Z,43.99
2024-03-14T11:13:34.075Z,44.33
2024-03-14T11:28:38.588Z,44.54
2024-03-14T11:43:43.151Z,44.83
2024-03-14T11:58:45.958Z,45.05
2024-03-14T12:13:54.218Z,47.30
2024-03-14T12:28:57.615Z,47.98
2024-03-14T12:43:59.930Z,47.83
2024-03-14T12:59:02.696Z,48.02
2024-03-14T13:14:13.344Z,48.67
2024-03-14T13:29:16.808Z,49.04
2024-03-14T13:44:20.093Z,48.80
2024-03-14T13:59:23.087Z,48.40
2024-03-14T14:14:25.131Z,47.35
2024-03-14T14:29:27.033Z,47.62
2024-03-14T14:44:28.901Z,47.33
2024-03-14T14:59:31.331Z,45.96
2024-03-14T15:14:33.223Z,47.28
2024-03-14T15:29:37.602Z,50.79
2024-03-14T15:44:40.219Z,53.91
2024-03-14T15:59:43.334Z,54.82
2024-03-14T16:14:48.241Z,56.02
2024-03-14T16:29:52.631Z,58.28
2024-03-14T16:44:54.356Z,58.83
2024-03-14T16:59:57.408Z,60.99
2024-03-14T17:15:04.247Z,63.57
2024-03-14T17:30:09.520Z,66.76
2024-03-14T17:45:16.197Z,68.36
2024-03-14T18:00:19.160Z,68.50
2024-03-14T18:15:21.714Z,68.39
2024-03-14T18:30:24.084Z,70.47
2024-03-14T18:45:26.545Z,71.76
2024-03-14T19:00:32.295Z,70.12
2024-03-14T19:15:34.548Z,70.99
2024-03-14T19:30:37.163Z,74.02
2024-03-14T19:45:41.187Z,73.50
2024-03-14T20:00:43.215Z,72.96
2024-03-14T20:15:45.590Z,75.68
2024-03-14T20:30:48.461Z,77.48
2024-03-14T20:45:51.389Z,77.82
2024-03-14T21:00:53.753Z,79.32
2024-03-14T21:15:55.759Z,80.59
2024-03-14T21:30:57.991Z,82.42
2024-03-14T21:45:59.964Z,83.58
2024-03-14T22:01:02.045Z,85.71
2024-03-14T22:16:05.342Z,87.68
2024-03-14T22:31:12.218Z,90.49
2024-03-14T22:46:14.674Z,92.78
2024-03-14T23:01:16.710Z,93.11
2024-03-14T23:16:18.742Z,94.68
2024-03-14T23:31:22.200Z,96.86
2024-03-14T23:46:26.115Z,98.64
